Aviation Digital Data Service (ADDS)

Output produced by TAFs form (1113 UTC 01 September 2014)
found at http://aviationweather.gov/adds/tafs/
 
KTUS 010520Z 0106/0206 26007KT P6SM SKC 
     FM010700 14007KT P6SM SKC 
     FM012000 29010KT P6SM FEW100